createdAt,value
2023-04-21T00:01:42.207Z,8.58
2023-04-21T00:04:13.761Z,8.92
2023-04-21T00:06:42.144Z,8.44
2023-04-21T00:09:11.378Z,8.50
2023-04-21T00:11:39.428Z,8.62
2023-04-21T00:14:07.536Z,8.24
2023-04-21T00:16:35.997Z,7.92
2023-04-21T00:19:07.305Z,8.53
2023-04-21T00:21:36.468Z,9.04
2023-04-21T00:24:04.712Z,8.77
2023-04-21T00:26:32.834Z,8.07
2023-04-21T00:29:01.398Z,8.33
2023-04-21T00:31:31.737Z,8.11
2023-04-21T00:33:59.962Z,7.77
2023-04-21T00:36:28.772Z,8.23
2023-04-21T00:38:56.768Z,8.27
2023-04-21T00:41:24.820Z,8.01
2023-04-21T00:44:07.199Z,8.20
2023-04-21T00:46:35.768Z,8.25
2023-04-21T00:49:06.127Z,8.17
2023-04-21T00:51:35.333Z,8.09
2023-04-21T00:54:05.618Z,8.24
2023-04-21T00:56:36.243Z,7.74
2023-04-21T00:59:04.493Z,8.03
2023-04-21T01:01:34.569Z,7.57
2023-04-21T01:04:04.426Z,7.59
2023-04-21T01:06:34.360Z,7.67
2023-04-21T01:09:07.470Z,7.72
2023-04-21T01:11:37.498Z,7.67
2023-04-21T01:14:07.973Z,7.51
2023-04-21T01:16:37.803Z,7.22
2023-04-21T01:19:06.528Z,7.13
2023-04-21T01:21:40.798Z,7.42
2023-04-21T01:24:09.188Z,7.20
2023-04-21T01:26:37.734Z,7.32
2023-04-21T01:29:05.811Z,7.59
2023-04-21T01:31:34.344Z,8.13
2023-04-21T01:34:05.811Z,7.68
2023-04-21T01:36:34.404Z,7.82
2023-04-21T01:39:02.571Z,8.01
2023-04-21T01:41:30.974Z,8.10
2023-04-21T01:43:59.307Z,8.30
2023-04-21T01:46:27.342Z,8.35
2023-04-21T01:48:55.372Z,8.22
2023-04-21T01:51:23.738Z,8.31
2023-04-21T01:53:51.702Z,8.02
2023-04-21T01:56:19.821Z,7.90
2023-04-21T01:58:48.220Z,7.24
2023-04-21T02:01:16.263Z,7.75
2023-04-21T02:03:44.851Z,7.09
2023-04-21T02:06:14.351Z,7.46
2023-04-21T02:08:42.455Z,7.23
2023-04-21T02:11:10.911Z,7.38
2023-04-21T02:13:41.284Z,7.46
2023-04-21T02:16:13.889Z,7.28
2023-04-21T02:18:44.829Z,6.89
2023-04-21T02:21:13.339Z,6.94
2023-04-21T02:23:41.588Z,7.70
2023-04-21T02:26:09.591Z,7.37
2023-04-21T02:28:37.931Z,7.22
2023-04-21T02:31:06.248Z,6.98
2023-04-21T02:33:35.305Z,6.76
2023-04-21T02:36:04.539Z,6.74
2023-04-21T02:38:32.898Z,6.14
2023-04-21T02:41:00.887Z,6.70
2023-04-21T02:43:29.200Z,6.79
2023-04-21T02:45:57.274Z,7.01
2023-04-21T02:48:25.570Z,7.03
2023-04-21T02:50:53.999Z,6.43
2023-04-21T02:53:22.262Z,6.02
2023-04-21T02:55:51.879Z,5.95
2023-04-21T02:58:20.200Z,6.35
2023-04-21T03:00:48.169Z,6.67
2023-04-21T03:03:16.941Z,6.26
2023-04-21T03:05:45.551Z,6.46
2023-04-21T03:08:13.530Z,6.15
2023-04-21T03:10:42.024Z,6.31
2023-04-21T03:13:10.437Z,6.28
2023-04-21T03:15:38.576Z,6.45
2023-04-21T03:18:06.717Z,6.35
2023-04-21T03:20:35.165Z,6.50
2023-04-21T03:23:03.841Z,6.83
2023-04-21T03:25:31.899Z,7.27
2023-04-21T03:28:00.330Z,6.50
2023-04-21T03:30:28.358Z,6.71
2023-04-21T03:32:56.442Z,7.23
2023-04-21T03:35:24.891Z,6.90
2023-04-21T03:37:52.910Z,6.67
2023-04-21T03:40:21.467Z,6.66
2023-04-21T03:42:49.945Z,6.67
2023-04-21T03:45:22.731Z,7.00
2023-04-21T03:47:55.879Z,6.99
2023-04-21T03:50:24.066Z,7.12
2023-04-21T03:52:52.403Z,7.39
2023-04-21T03:55:20.523Z,7.30
2023-04-21T03:57:48.527Z,7.59
2023-04-21T04:00:17.149Z,7.54
2023-04-21T04:02:46.789Z,7.37
2023-04-21T04:05:14.996Z,7.50
2023-04-21T04:07:43.206Z,7.42
2023-04-21T04:10:12.154Z,7.59
2023-04-21T04:12:40.313Z,7.55
2023-04-21T04:15:08.664Z,7.52
2023-04-21T04:17:37.045Z,7.89
2023-04-21T04:20:08.197Z,7.31
2023-04-21T04:22:36.550Z,7.66
2023-04-21T04:25:05.509Z,7.41
2023-04-21T04:27:33.628Z,7.79
2023-04-21T04:30:02.038Z,8.02
2023-04-21T04:32:30.101Z,9.09
2023-04-21T04:34:59.070Z,10.31
2023-04-21T04:37:27.560Z,11.28
2023-04-21T04:39:55.695Z,11.88
2023-04-21T04:42:25.456Z,12.61
2023-04-21T04:44:54.455Z,13.13
2023-04-21T04:47:22.580Z,14.04
2023-04-21T04:49:50.637Z,13.80
2023-04-21T04:52:18.996Z,14.06
2023-04-21T04:54:47.001Z,13.97
2023-04-21T04:57:14.927Z,13.99
2023-04-21T04:59:43.306Z,14.10
2023-04-21T05:02:11.450Z,14.40
2023-04-21T05:04:39.913Z,14.57
2023-04-21T05:07:08.458Z,15.04
2023-04-21T05:09:36.539Z,14.40
2023-04-21T05:12:05.095Z,15.11
2023-04-21T05:14:33.631Z,15.02
2023-04-21T05:17:02.014Z,14.74
2023-04-21T05:19:30.140Z,14.94
2023-04-21T05:22:01.463Z,15.50
2023-04-21T05:24:29.648Z,15.65
2023-04-21T05:26:57.697Z,16.15
2023-04-21T05:29:26.005Z,16.04
2023-04-21T05:31:54.125Z,16.81
2023-04-21T05:34:22.249Z,16.98
2023-04-21T05:36:50.778Z,15.93
2023-04-21T05:39:18.907Z,14.87
2023-04-21T05:41:46.944Z,16.59
2023-04-21T05:44:18.151Z,15.52
2023-04-21T05:46:46.442Z,14.79
2023-04-21T05:49:14.464Z,15.33
2023-04-21T05:51:42.917Z,15.41
2023-04-21T05:54:10.940Z,16.17
2023-04-21T05:56:39.005Z,15.40
2023-04-21T05:59:07.462Z,15.00
2023-04-21T06:01:36.159Z,16.58
2023-04-21T06:04:04.806Z,16.47
2023-04-21T06:06:33.066Z,16.48
2023-04-21T06:09:01.425Z,17.41
2023-04-21T06:11:29.773Z,18.31
2023-04-21T06:13:59.834Z,18.40
2023-04-21T06:16:28.250Z,18.54
2023-04-21T06:18:59.206Z,18.29
2023-04-21T06:21:27.233Z,18.44
2023-04-21T06:23:55.340Z,18.89
2023-04-21T06:26:23.679Z,19.25
2023-04-21T06:28:51.621Z,19.14
2023-04-21T06:31:20.177Z,18.98
2023-04-21T06:33:48.671Z,19.59
2023-04-21T06:36:18.066Z,18.92
2023-04-21T06:38:46.242Z,19.59
2023-04-21T06:41:14.666Z,19.12
2023-04-21T06:43:42.653Z,19.20
2023-04-21T06:46:11.020Z,19.86
2023-04-21T06:48:39.338Z,19.22
2023-04-21T06:51:07.529Z,19.14
2023-04-21T06:53:35.609Z,19.49
2023-04-21T06:56:04.234Z,18.72
2023-04-21T06:58:32.203Z,18.98
2023-04-21T07:01:00.321Z,19.73
2023-04-21T07:03:29.029Z,19.32
2023-04-21T07:05:57.134Z,20.13
2023-04-21T07:08:25.575Z,19.72
2023-04-21T07:10:53.965Z,19.61
2023-04-21T07:13:22.102Z,20.47
2023-04-21T07:15:50.280Z,19.93
2023-04-21T07:18:18.910Z,20.01
2023-04-21T07:20:47.699Z,20.49
2023-04-21T07:23:16.265Z,20.86
2023-04-21T07:25:44.647Z,20.80
2023-04-21T07:28:15.663Z,20.73
2023-04-21T07:30:43.703Z,21.13
2023-04-21T07:33:12.301Z,21.58
2023-04-21T07:35:40.400Z,22.03
2023-04-21T07:38:08.447Z,20.67
2023-04-21T07:40:36.901Z,20.23
2023-04-21T07:43:05.280Z,21.22
2023-04-21T07:45:33.316Z,20.79
2023-04-21T07:48:01.851Z,20.53
2023-04-21T07:50:30.784Z,21.46
2023-04-21T07:53:00.575Z,21.23
2023-04-21T07:55:30.541Z,21.25
2023-04-21T07:58:00.129Z,20.45
2023-04-21T08:00:29.723Z,21.02
2023-04-21T08:03:02.401Z,21.71
2023-04-21T08:05:34.884Z,21.91
2023-04-21T08:08:07.882Z,20.44
2023-04-21T08:10:36.830Z,20.97
2023-04-21T08:13:06.633Z,21.11
2023-04-21T08:15:35.203Z,22.27
2023-04-21T08:18:03.641Z,21.91
2023-04-21T08:20:32.412Z,20.89
2023-04-21T08:23:01.997Z,21.01
2023-04-21T08:25:34.023Z,21.37
2023-04-21T08:28:04.408Z,21.74
2023-04-21T08:30:34.608Z,22.36
2023-04-21T08:33:03.097Z,21.17
2023-04-21T08:35:31.189Z,22.33
2023-04-21T08:37:59.106Z,21.37
2023-04-21T08:40:33.804Z,22.59
2023-04-21T08:43:02.008Z,23.57
2023-04-21T08:45:32.456Z,23.18
2023-04-21T08:48:02.188Z,21.91
2023-04-21T08:50:31.634Z,22.31
2023-04-21T08:52:59.906Z,22.64
2023-04-21T08:55:30.876Z,22.65
2023-04-21T08:57:59.244Z,22.69
2023-04-21T09:00:27.201Z,23.00
2023-04-21T09:03:01.685Z,22.86
2023-04-21T09:05:33.075Z,23.18
2023-04-21T09:08:20.455Z,23.79
2023-04-21T09:10:52.449Z,23.59
2023-04-21T09:13:23.463Z,22.86
2023-04-21T09:15:52.633Z,23.07
2023-04-21T09:18:23.108Z,22.44
2023-04-21T09:21:06.313Z,23.36
2023-04-21T09:23:51.987Z,23.49
2023-04-21T09:26:23.168Z,23.27
2023-04-21T09:28:53.282Z,23.70
2023-04-21T09:31:25.351Z,23.04
2023-04-21T09:34:00.006Z,22.40
2023-04-21T09:36:30.806Z,23.72
2023-04-21T09:39:29.146Z,23.08
2023-04-21T09:41:51.216Z,23.46
2023-04-21T09:44:19.934Z,24.23
2023-04-21T09:46:50.916Z,22.74
2023-04-21T09:49:19.470Z,23.40
2023-04-21T09:56:54.396Z,23.29
2023-04-21T09:59:27.841Z,22.36
2023-04-21T10:01:58.556Z,23.50
2023-04-21T10:04:29.757Z,24.15
2023-04-21T10:06:59.729Z,23.82
2023-04-21T10:09:56.683Z,24.38
2023-04-21T10:12:25.566Z,24.75
2023-04-21T10:14:57.440Z,22.96
2023-04-21T10:17:26.980Z,23.48
2023-04-21T10:19:57.700Z,23.67
2023-04-21T10:22:33.813Z,23.11
2023-04-21T10:25:03.791Z,23.96
2023-04-21T10:27:42.293Z,23.00
2023-04-21T10:30:20.010Z,22.44
2023-04-21T10:32:48.198Z,23.64
2023-04-21T10:35:23.231Z,24.62
2023-04-21T10:37:52.271Z,23.44
2023-04-21T10:40:44.239Z,24.82
2023-04-21T10:43:49.290Z,25.17
2023-04-21T10:46:37.542Z,23.20
2023-04-21T10:49:09.300Z,23.59
2023-04-21T10:52:06.072Z,25.68
2023-04-21T10:54:47.073Z,25.42
2023-04-21T10:57:19.753Z,25.85
2023-04-21T10:59:49.710Z,24.96
2023-04-21T11:02:19.426Z,24.42
2023-04-21T11:04:52.467Z,24.49
2023-04-21T11:07:24.966Z,24.25
2023-04-21T11:10:11.572Z,24.58
2023-04-21T11:12:41.615Z,24.78
2023-04-21T11:15:11.926Z,25.54
2023-04-21T11:17:43.627Z,24.90
2023-04-21T11:20:11.969Z,24.32
2023-04-21T11:22:40.494Z,24.06
2023-04-21T11:25:17.530Z,24.05
2023-04-21T11:27:55.079Z,25.84
2023-04-21T11:30:33.091Z,26.78
2023-04-21T11:33:01.795Z,26.43
2023-04-21T11:35:29.973Z,26.75
2023-04-21T11:37:58.190Z,26.10
2023-04-21T11:40:26.602Z,25.65
2023-04-21T11:42:54.891Z,24.69
2023-04-21T11:45:23.084Z,24.48
2023-04-21T11:47:51.585Z,24.05
2023-04-21T11:50:32.463Z,24.49
2023-04-21T11:53:02.847Z,23.39
2023-04-21T11:55:31.080Z,22.68
2023-04-21T11:57:59.480Z,22.77
2023-04-21T12:00:31.622Z,21.99
2023-04-21T12:03:00.306Z,21.59
2023-04-21T12:05:36.430Z,22.37
2023-04-21T12:08:06.536Z,22.94
2023-04-21T12:10:34.709Z,22.54
2023-04-21T12:13:03.170Z,22.78
2023-04-21T12:15:31.489Z,21.78
2023-04-21T12:17:59.663Z,21.82
2023-04-21T12:20:30.140Z,21.23
2023-04-21T12:22:58.870Z,22.38
2023-04-21T12:25:26.892Z,21.34
2023-04-21T12:27:58.756Z,21.63
2023-04-21T12:30:27.116Z,21.80
2023-04-21T12:32:56.089Z,21.41
2023-04-21T12:35:24.416Z,22.70
2023-04-21T12:37:52.864Z,22.89
2023-04-21T12:40:21.001Z,21.90
2023-04-21T12:42:49.184Z,20.97
2023-04-21T12:45:17.586Z,20.20
2023-04-21T12:47:46.902Z,19.39
2023-04-21T12:50:16.396Z,19.53
2023-04-21T12:52:44.936Z,19.13
2023-04-21T12:55:13.837Z,19.96
2023-04-21T12:57:42.136Z,19.77
2023-04-21T13:00:13.272Z,19.86
2023-04-21T13:02:42.104Z,20.44
2023-04-21T13:05:12.286Z,20.40
2023-04-21T13:07:40.357Z,20.31
2023-04-21T13:10:08.825Z,20.75
2023-04-21T13:12:37.480Z,19.98
2023-04-21T13:15:06.227Z,20.76
2023-04-21T13:17:34.313Z,20.20
2023-04-21T13:20:02.724Z,19.79
2023-04-21T13:22:31.012Z,19.95
2023-04-21T13:25:01.244Z,20.02
2023-04-21T13:27:29.633Z,20.40
2023-04-21T13:29:57.912Z,19.79
2023-04-21T13:32:26.166Z,20.09
2023-04-21T13:34:55.058Z,20.56
2023-04-21T13:37:23.118Z,20.19
2023-04-21T13:39:51.247Z,20.19
2023-04-21T13:42:19.817Z,19.48
2023-04-21T13:44:47.929Z,19.35
2023-04-21T13:47:16.078Z,19.67
2023-04-21T13:49:44.498Z,20.17
2023-04-21T13:52:12.598Z,19.98
2023-04-21T13:54:40.641Z,20.02
2023-04-21T13:57:09.198Z,20.72
2023-04-21T13:59:37.276Z,20.27
2023-04-21T14:02:05.352Z,19.89
2023-04-21T14:04:33.976Z,20.14
2023-04-21T14:07:02.289Z,20.78
2023-04-21T14:09:30.369Z,19.44
2023-04-21T14:11:58.775Z,19.03
2023-04-21T14:14:37.983Z,19.16
2023-04-21T14:17:08.092Z,18.94
2023-04-21T14:19:36.866Z,19.05
2023-04-21T14:22:05.790Z,18.89
2023-04-21T14:24:34.290Z,18.93
2023-04-21T14:27:02.594Z,19.10
2023-04-21T14:29:30.836Z,19.55
2023-04-21T14:31:59.701Z,19.33
2023-04-21T14:34:27.942Z,19.12
2023-04-21T14:36:56.760Z,19.39
2023-04-21T14:39:25.204Z,18.68
2023-04-21T14:41:53.199Z,18.63
2023-04-21T14:44:21.476Z,18.49
2023-04-21T14:47:00.874Z,18.63
2023-04-21T14:49:38.167Z,19.11
2023-04-21T14:52:07.335Z,19.14
2023-04-21T14:54:35.552Z,19.45
2023-04-21T14:57:18.924Z,19.41
2023-04-21T14:59:53.159Z,19.50
2023-04-21T15:02:22.031Z,19.44
2023-04-21T15:04:50.912Z,19.67
2023-04-21T15:07:23.324Z,19.57
2023-04-21T15:09:53.056Z,18.96
2023-04-21T15:12:21.300Z,19.24
2023-04-21T15:14:49.526Z,19.63
2023-04-21T15:17:18.012Z,19.33
2023-04-21T15:19:46.096Z,19.14
2023-04-21T15:22:15.429Z,19.35
2023-04-21T15:24:44.044Z,19.41
2023-04-21T15:27:12.243Z,19.44
2023-04-21T15:29:40.580Z,19.82
2023-04-21T15:32:09.131Z,19.87
2023-04-21T15:34:37.115Z,19.73
2023-04-21T15:37:05.195Z,19.91
2023-04-21T15:39:33.773Z,20.18
2023-04-21T15:42:02.116Z,19.55
2023-04-21T15:44:30.173Z,19.27
2023-04-21T15:46:58.774Z,18.98
2023-04-21T15:49:26.957Z,18.85
2023-04-21T15:51:56.752Z,18.96
2023-04-21T15:54:25.142Z,19.05
2023-04-21T15:56:53.160Z,19.03
2023-04-21T15:59:23.067Z,19.41
2023-04-21T16:01:53.083Z,18.96
2023-04-21T16:04:21.752Z,18.57
2023-04-21T16:06:49.989Z,18.40
2023-04-21T16:09:18.510Z,18.29
2023-04-21T16:11:47.112Z,18.52
2023-04-21T16:14:16.775Z,18.46
2023-04-21T16:16:45.658Z,18.36
2023-04-21T16:19:14.037Z,18.24
2023-04-21T16:21:43.571Z,17.81
2023-04-21T16:24:11.759Z,17.28
2023-04-21T16:26:40.700Z,16.84
2023-04-21T16:29:08.797Z,16.66
2023-04-21T16:31:36.936Z,16.45
2023-04-21T16:34:05.874Z,16.03
2023-04-21T16:36:33.954Z,15.67
2023-04-21T16:39:02.114Z,15.38
2023-04-21T16:41:30.785Z,15.00
2023-04-21T16:43:58.760Z,14.75
2023-04-21T16:46:26.753Z,15.22
2023-04-21T16:48:55.255Z,14.94
2023-04-21T16:51:23.356Z,14.73
2023-04-21T16:53:51.362Z,14.75
2023-04-21T16:56:20.578Z,15.53
2023-04-21T16:58:48.526Z,14.85
2023-04-21T17:01:16.573Z,14.36
2023-04-21T17:03:45.243Z,14.14
2023-04-21T17:06:17.473Z,14.00
2023-04-21T17:08:45.917Z,14.25
2023-04-21T17:11:14.066Z,14.72
2023-04-21T17:13:42.097Z,14.79
2023-04-21T17:16:10.874Z,14.37
2023-04-21T17:18:38.865Z,13.37
2023-04-21T17:21:06.882Z,13.96
2023-04-21T17:23:35.318Z,13.44
2023-04-21T17:26:05.341Z,13.05
2023-04-21T17:28:33.798Z,12.37
2023-04-21T17:31:14.492Z,12.50
2023-04-21T17:33:44.475Z,12.23
2023-04-21T17:36:13.431Z,11.95
2023-04-21T17:38:43.080Z,11.92
2023-04-21T17:41:11.794Z,11.85
2023-04-21T17:43:40.355Z,12.27
2023-04-21T17:46:08.587Z,11.43
2023-04-21T17:48:36.759Z,10.90
2023-04-21T17:51:05.129Z,10.73
2023-04-21T17:53:33.426Z,10.85
2023-04-21T17:56:01.810Z,10.48
2023-04-21T17:58:30.277Z,10.31
2023-04-21T18:00:58.302Z,10.60
2023-04-21T18:03:27.601Z,11.11
2023-04-21T18:05:57.460Z,10.39
2023-04-21T18:08:28.285Z,9.84
2023-04-21T18:10:58.059Z,9.52
2023-04-21T18:13:26.148Z,10.25
2023-04-21T18:15:54.217Z,10.41
2023-04-21T18:18:22.587Z,10.80
2023-04-21T18:20:50.835Z,9.56
2023-04-21T18:23:18.813Z,9.22
2023-04-21T18:25:47.347Z,9.20
2023-04-21T18:28:15.450Z,9.14
2023-04-21T18:30:43.654Z,8.83
2023-04-21T18:33:12.428Z,9.27
2023-04-21T18:35:41.818Z,9.26
2023-04-21T18:38:11.956Z,8.81
2023-04-21T18:40:41.132Z,8.77
2023-04-21T18:43:10.076Z,9.37
2023-04-21T18:45:38.865Z,8.92
2023-04-21T18:48:07.708Z,8.43
2023-04-21T18:50:40.296Z,8.24
2023-04-21T18:53:09.416Z,8.19
2023-04-21T18:55:37.966Z,8.70
2023-04-21T18:58:06.345Z,8.83
2023-04-21T19:00:37.726Z,8.96
2023-04-21T19:03:06.596Z,8.82
2023-04-21T19:05:36.899Z,8.81
2023-04-21T19:08:05.554Z,8.76
2023-04-21T19:10:37.782Z,8.88
2023-04-21T19:13:06.295Z,8.86
2023-04-21T19:15:35.294Z,8.51
2023-04-21T19:18:03.383Z,8.50
2023-04-21T19:20:32.655Z,9.07
2023-04-21T19:23:00.694Z,9.07
2023-04-21T19:25:28.822Z,8.74
2023-04-21T19:27:57.540Z,8.87
2023-04-21T19:30:25.573Z,9.13
2023-04-21T19:32:55.048Z,8.94
2023-04-21T19:35:23.563Z,8.38
2023-04-21T19:37:51.657Z,8.41
2023-04-21T19:40:19.979Z,8.49
2023-04-21T19:42:48.311Z,8.21
2023-04-21T19:45:16.926Z,7.94
2023-04-21T19:47:45.145Z,7.91
2023-04-21T19:50:13.555Z,7.92
2023-04-21T19:52:42.022Z,7.78
2023-04-21T19:55:10.068Z,8.20
2023-04-21T19:57:38.458Z,8.12
2023-04-21T20:00:09.485Z,7.96
2023-04-21T20:02:40.649Z,7.72
2023-04-21T20:05:09.644Z,8.04
2023-04-21T20:07:38.237Z,7.71
2023-04-21T20:10:07.571Z,7.47
2023-04-21T20:12:36.064Z,7.66
2023-04-21T20:15:04.253Z,7.56
2023-04-21T20:17:32.768Z,8.04
2023-04-21T20:20:01.518Z,7.64
2023-04-21T20:22:29.624Z,7.91
2023-04-21T20:24:58.323Z,7.83
2023-04-21T20:27:27.199Z,7.87
2023-04-21T20:29:55.230Z,7.88
2023-04-21T20:32:23.363Z,8.00
2023-04-21T20:34:53.672Z,7.60
2023-04-21T20:37:23.420Z,7.93
2023-04-21T20:39:52.104Z,7.52
2023-04-21T20:42:22.039Z,7.53
2023-04-21T20:44:49.992Z,7.56
2023-04-21T20:47:18.357Z,7.23
2023-04-21T20:49:47.697Z,7.24
2023-04-21T20:52:16.219Z,7.02
2023-04-21T20:54:44.707Z,7.21
2023-04-21T20:57:12.756Z,7.33
2023-04-21T21:02:09.423Z,7.55
2023-04-21T21:04:37.584Z,7.46
2023-04-21T21:07:05.554Z,7.50
2023-04-21T21:09:34.097Z,7.50
2023-04-21T21:12:02.676Z,7.27
2023-04-21T21:14:30.948Z,7.42
2023-04-21T21:16:59.456Z,7.49
2023-04-21T21:19:27.509Z,7.34
2023-04-21T21:21:55.510Z,7.18
2023-04-21T21:24:25.138Z,7.32
2023-04-21T21:26:53.263Z,7.11
2023-04-21T21:29:21.239Z,7.02
2023-04-21T21:31:49.607Z,6.93
2023-04-21T21:34:17.602Z,7.00
2023-04-21T21:36:45.677Z,7.03
2023-04-21T21:39:14.469Z,6.96
2023-04-21T21:41:42.518Z,7.00
2023-04-21T21:44:10.755Z,6.78
2023-04-21T21:46:39.317Z,6.34
2023-04-21T21:49:07.476Z,6.74
2023-04-21T21:51:35.536Z,6.67
2023-04-21T21:54:03.943Z,6.67
2023-04-21T21:56:32.063Z,7.12
2023-04-21T21:59:00.121Z,6.71
2023-04-21T22:01:28.511Z,6.88
2023-04-21T22:03:57.166Z,6.78
2023-04-21T22:06:27.068Z,7.13
2023-04-21T22:08:55.156Z,6.96
2023-04-21T22:11:24.335Z,6.54
2023-04-21T22:13:52.354Z,6.96
2023-04-21T22:16:20.389Z,7.12
2023-04-21T22:18:49.047Z,6.87
2023-04-21T22:21:16.999Z,6.66
2023-04-21T22:23:45.259Z,6.88
2023-04-21T22:26:13.620Z,6.61
2023-04-21T22:28:42.001Z,6.90
2023-04-21T22:31:10.693Z,6.89
2023-04-21T22:33:39.120Z,7.07
2023-04-21T22:36:09.731Z,6.82
2023-04-21T22:38:38.715Z,6.93
2023-04-21T22:41:06.953Z,7.00
2023-04-21T22:43:35.087Z,6.88
2023-04-21T22:46:03.539Z,7.05
2023-04-21T22:48:32.986Z,7.06
2023-04-21T22:51:01.777Z,6.92
2023-04-21T22:53:30.227Z,6.92
2023-04-21T22:55:58.291Z,6.79
2023-04-21T22:58:26.662Z,6.80
2023-04-21T23:00:55.102Z,6.79
2023-04-21T23:03:23.960Z,6.93
2023-04-21T23:05:52.154Z,6.80
2023-04-21T23:08:20.487Z,6.87
2023-04-21T23:10:48.574Z,6.66
2023-04-21T23:13:16.609Z,6.77
2023-04-21T23:15:45.054Z,7.16
2023-04-21T23:18:13.088Z,7.14
2023-04-21T23:20:41.127Z,7.06
2023-04-21T23:23:09.725Z,7.07
2023-04-21T23:25:37.744Z,6.76
2023-04-21T23:28:05.849Z,6.91
2023-04-21T23:30:34.247Z,7.00
2023-04-21T23:33:02.542Z,7.47
2023-04-21T23:35:30.963Z,7.26
2023-04-21T23:37:59.355Z,7.15
2023-04-21T23:40:27.486Z,7.09
2023-04-21T23:42:55.703Z,7.12
2023-04-21T23:45:24.083Z,7.20
2023-04-21T23:47:52.273Z,7.54
2023-04-21T23:50:20.278Z,8.13
2023-04-21T23:52:49.286Z,8.05
2023-04-21T23:55:17.429Z,8.34
2023-04-21T23:57:47.099Z,7.60
